sensor_id;sensor_type;location;lat;lon;timestamp;pressure;altitude;pressure_sealevel;temperature;humidity
74336;BME280;62755;-33.398;-70.572;2023-11-21T00:01:35;93229.72;;;22.33;39.89
74336;BME280;62755;-33.398;-70.572;2023-11-21T00:04:04;93225.59;;;22.18;39.79
74336;BME280;62755;-33.398;-70.572;2023-11-21T00:06:34;93227.13;;;22.19;40.13
74336;BME280;62755;-33.398;-70.572;2023-11-21T00:09:04;93234.28;;;22.16;40.09
74336;BME280;62755;-33.398;-70.572;2023-11-21T00:11:35;93229.34;;;22.20;40.01
74336;BME280;62755;-33.398;-70.572;2023-11-21T00:14:05;93243.84;;;22.06;40.40
74336;BME280;62755;-33.398;-70.572;2023-11-21T00:16:36;93245.31;;;22.27;40.24
74336;BME280;62755;-33.398;-70.572;2023-11-21T00:19:06;93253.78;;;22.29;40.15
74336;BME280;62755;-33.398;-70.572;2023-11-21T00:21:36;93258.28;;;22.32;40.33
74336;BME280;62755;-33.398;-70.572;2023-11-21T00:24:08;93262.91;;;22.46;40.10
74336;BME280;62755;-33.398;-70.572;2023-11-21T00:26:40;93263.78;;;22.58;39.96
74336;BME280;62755;-33.398;-70.572;2023-11-21T00:29:09;93267.97;;;22.33;40.45
74336;BME280;62755;-33.398;-70.572;2023-11-21T00:31:40;93282.44;;;22.39;40.27
74336;BME280;62755;-33.398;-70.572;2023-11-21T00:34:10;93285.69;;;22.18;40.55
74336;BME280;62755;-33.398;-70.572;2023-11-21T00:36:40;93280.34;;;22.03;40.99
74336;BME280;62755;-33.398;-70.572;2023-11-21T00:39:09;93266.69;;;21.83;41.74
74336;BME280;62755;-33.398;-70.572;2023-11-21T00:41:39;93274.38;;;21.84;41.44
74336;BME280;62755;-33.398;-70.572;2023-11-21T00:44:09;93284.94;;;21.77;41.67
74336;BME280;62755;-33.398;-70.572;2023-11-21T00:46:40;93275.16;;;21.85;41.66
74336;BME280;62755;-33.398;-70.572;2023-11-21T00:49:09;93276.25;;;21.93;41.61
74336;BME280;62755;-33.398;-70.572;2023-11-21T00:51:39;93279.34;;;21.66;42.26
74336;BME280;62755;-33.398;-70.572;2023-11-21T00:54:08;93283.28;;;21.65;42.19
74336;BME280;62755;-33.398;-70.572;2023-11-21T00:56:38;93280.34;;;21.83;42.27
74336;BME280;62755;-33.398;-70.572;2023-11-21T00:59:07;93277.31;;;21.81;42.58
74336;BME280;62755;-33.398;-70.572;2023-11-21T01:01:39;93277.03;;;21.79;42.77
74336;BME280;62755;-33.398;-70.572;2023-11-21T01:04:09;93275.25;;;21.96;42.68
74336;BME280;62755;-33.398;-70.572;2023-11-21T01:06:38;93273.63;;;21.84;43.03
74336;BME280;62755;-33.398;-70.572;2023-11-21T01:09:08;93270.91;;;21.84;42.86
74336;BME280;62755;-33.398;-70.572;2023-11-21T01:11:37;93272.41;;;21.85;43.12
74336;BME280;62755;-33.398;-70.572;2023-11-21T01:14:07;93266.69;;;21.83;43.36
74336;BME280;62755;-33.398;-70.572;2023-11-21T01:16:37;93263.41;;;21.99;43.13
74336;BME280;62755;-33.398;-70.572;2023-11-21T01:19:08;93261.34;;;21.94;43.14
74336;BME280;62755;-33.398;-70.572;2023-11-21T01:21:40;93272.53;;;22.16;42.95
74336;BME280;62755;-33.398;-70.572;2023-11-21T01:24:11;93270.13;;;22.04;43.39
74336;BME280;62755;-33.398;-70.572;2023-11-21T01:26:40;93267.59;;;22.20;42.85
74336;BME280;62755;-33.398;-70.572;2023-11-21T01:29:10;93271.69;;;21.70;44.22
74336;BME280;62755;-33.398;-70.572;2023-11-21T01:31:39;93268.72;;;21.88;44.07
74336;BME280;62755;-33.398;-70.572;2023-11-21T01:34:10;93261.88;;;21.98;43.82
74336;BME280;62755;-33.398;-70.572;2023-11-21T01:36:41;93266.94;;;22.05;43.67
74336;BME280;62755;-33.398;-70.572;2023-11-21T01:39:10;93257.94;;;21.99;44.04
74336;BME280;62755;-33.398;-70.572;2023-11-21T01:41:42;93269.81;;;21.96;43.90
74336;BME280;62755;-33.398;-70.572;2023-11-21T01:44:12;93271.31;;;21.97;44.12
74336;BME280;62755;-33.398;-70.572;2023-11-21T01:46:42;93266.13;;;21.99;44.32
74336;BME280;62755;-33.398;-70.572;2023-11-21T01:49:13;93263.94;;;22.03;44.32
74336;BME280;62755;-33.398;-70.572;2023-11-21T01:51:44;93265.31;;;21.93;44.48
74336;BME280;62755;-33.398;-70.572;2023-11-21T01:54:16;93272.41;;;21.85;44.58
74336;BME280;62755;-33.398;-70.572;2023-11-21T01:56:47;93258.44;;;21.63;45.17
74336;BME280;62755;-33.398;-70.572;2023-11-21T01:59:20;93268.56;;;21.77;45.29
74336;BME280;62755;-33.398;-70.572;2023-11-21T02:01:50;93269.63;;;21.45;45.82
74336;BME280;62755;-33.398;-70.572;2023-11-21T02:04:21;93266.69;;;21.14;46.64
74336;BME280;62755;-33.398;-70.572;2023-11-21T02:06:50;93277.31;;;21.12;47.13
74336;BME280;62755;-33.398;-70.572;2023-11-21T02:09:25;93278.00;;;21.07;47.45
74336;BME280;62755;-33.398;-70.572;2023-11-21T02:11:55;93281.19;;;21.05;47.62
74336;BME280;62755;-33.398;-70.572;2023-11-21T02:14:25;93275.72;;;21.20;47.63
74336;BME280;62755;-33.398;-70.572;2023-11-21T02:16:55;93281.75;;;20.94;48.12
74336;BME280;62755;-33.398;-70.572;2023-11-21T02:19:27;93284.94;;;20.78;48.65
74336;BME280;62755;-33.398;-70.572;2023-11-21T02:21:57;93291.16;;;20.79;48.79
74336;BME280;62755;-33.398;-70.572;2023-11-21T02:24:33;93296.97;;;21.16;47.99
74336;BME280;62755;-33.398;-70.572;2023-11-21T02:27:03;93294.91;;;21.11;48.20
74336;BME280;62755;-33.398;-70.572;2023-11-21T02:29:33;93293.69;;;21.12;48.26
74336;BME280;62755;-33.398;-70.572;2023-11-21T02:32:02;93298.94;;;21.00;48.67
74336;BME280;62755;-33.398;-70.572;2023-11-21T02:34:32;93296.13;;;20.80;49.25
74336;BME280;62755;-33.398;-70.572;2023-11-21T02:37:01;93293.81;;;20.73;49.47
74336;BME280;62755;-33.398;-70.572;2023-11-21T02:39:33;93297.81;;;20.92;49.29
74336;BME280;62755;-33.398;-70.572;2023-11-21T02:42:02;93307.13;;;20.86;49.39
74336;BME280;62755;-33.398;-70.572;2023-11-21T02:44:32;93307.13;;;21.00;49.35
74336;BME280;62755;-33.398;-70.572;2023-11-21T02:47:01;93304.41;;;20.86;49.55
74336;BME280;62755;-33.398;-70.572;2023-11-21T02:49:31;93304.31;;;21.10;48.99
74336;BME280;62755;-33.398;-70.572;2023-11-21T02:52:01;93300.91;;;20.85;49.65
74336;BME280;62755;-33.398;-70.572;2023-11-21T02:54:38;93293.97;;;20.84;49.77
74336;BME280;62755;-33.398;-70.572;2023-11-21T02:57:13;93285.50;;;20.82;49.89
74336;BME280;62755;-33.398;-70.572;2023-11-21T02:59:41;93293.41;;;21.10;49.28
74336;BME280;62755;-33.398;-70.572;2023-11-21T03:02:14;93276.84;;;20.98;49.64
74336;BME280;62755;-33.398;-70.572;2023-11-21T03:04:53;93275.59;;;21.29;48.91
74336;BME280;62755;-33.398;-70.572;2023-11-21T03:07:22;93272.63;;;21.47;48.22
74336;BME280;62755;-33.398;-70.572;2023-11-21T03:09:53;93278.63;;;21.51;48.42
74336;BME280;62755;-33.398;-70.572;2023-11-21T03:12:23;93266.50;;;21.52;48.27
74336;BME280;62755;-33.398;-70.572;2023-11-21T03:14:52;93267.22;;;21.52;48.47
74336;BME280;62755;-33.398;-70.572;2023-11-21T03:17:23;93268.25;;;21.55;48.45
74336;BME280;62755;-33.398;-70.572;2023-11-21T03:19:52;93264.25;;;21.16;49.18
74336;BME280;62755;-33.398;-70.572;2023-11-21T03:22:22;93258.91;;;21.07;49.32
74336;BME280;62755;-33.398;-70.572;2023-11-21T03:24:53;93264.38;;;21.07;49.48
74336;BME280;62755;-33.398;-70.572;2023-11-21T03:27:22;93257.69;;;21.08;49.32
74336;BME280;62755;-33.398;-70.572;2023-11-21T03:29:52;93252.41;;;21.19;49.01
74336;BME280;62755;-33.398;-70.572;2023-11-21T03:32:21;93248.66;;;20.87;49.70
74336;BME280;62755;-33.398;-70.572;2023-11-21T03:34:55;93242.66;;;20.68;50.07
74336;BME280;62755;-33.398;-70.572;2023-11-21T03:37:25;93236.75;;;20.26;50.69
74336;BME280;62755;-33.398;-70.572;2023-11-21T03:39:56;93246.06;;;20.63;50.12
74336;BME280;62755;-33.398;-70.572;2023-11-21T03:42:26;93243.66;;;21.00;49.15
74336;BME280;62755;-33.398;-70.572;2023-11-21T03:44:55;93239.13;;;21.12;48.77
74336;BME280;62755;-33.398;-70.572;2023-11-21T03:47:25;93229.75;;;21.13;48.96
74336;BME280;62755;-33.398;-70.572;2023-11-21T03:49:55;93227.50;;;20.96;49.45
74336;BME280;62755;-33.398;-70.572;2023-11-21T03:52:25;93226.75;;;20.81;50.07
74336;BME280;62755;-33.398;-70.572;2023-11-21T03:54:57;93229.41;;;20.47;50.93
74336;BME280;62755;-33.398;-70.572;2023-11-21T03:57:27;93227.47;;;20.47;51.20
74336;BME280;62755;-33.398;-70.572;2023-11-21T03:59:56;93224.91;;;20.29;51.45
74336;BME280;62755;-33.398;-70.572;2023-11-21T04:02:26;93227.41;;;20.18;51.83
74336;BME280;62755;-33.398;-70.572;2023-11-21T04:04:55;93220.84;;;20.10;52.20
74336;BME280;62755;-33.398;-70.572;2023-11-21T04:07:24;93215.97;;;20.14;51.83
74336;BME280;62755;-33.398;-70.572;2023-11-21T04:10:14;93209.91;;;19.81;52.37
74336;BME280;62755;-33.398;-70.572;2023-11-21T04:12:44;93200.75;;;19.93;52.61
74336;BME280;62755;-33.398;-70.572;2023-11-21T04:15:14;93204.00;;;19.97;52.44
74336;BME280;62755;-33.398;-70.572;2023-11-21T04:17:44;93204.47;;;19.81;52.69
74336;BME280;62755;-33.398;-70.572;2023-11-21T04:20:14;93193.22;;;19.88;52.29
74336;BME280;62755;-33.398;-70.572;2023-11-21T04:22:44;93197.34;;;19.98;52.32
74336;BME280;62755;-33.398;-70.572;2023-11-21T04:25:16;93191.53;;;20.05;52.29
74336;BME280;62755;-33.398;-70.572;2023-11-21T04:27:46;93185.31;;;19.90;52.54
74336;BME280;62755;-33.398;-70.572;2023-11-21T04:30:15;93190.19;;;19.86;52.57
74336;BME280;62755;-33.398;-70.572;2023-11-21T04:32:45;93190.50;;;19.50;53.57
74336;BME280;62755;-33.398;-70.572;2023-11-21T04:35:14;93191.16;;;19.83;52.96
74336;BME280;62755;-33.398;-70.572;2023-11-21T04:37:46;93177.03;;;19.70;53.31
74336;BME280;62755;-33.398;-70.572;2023-11-21T04:40:21;93166.53;;;19.63;53.36
74336;BME280;62755;-33.398;-70.572;2023-11-21T04:42:50;93174.25;;;19.79;53.10
74336;BME280;62755;-33.398;-70.572;2023-11-21T04:45:20;93170.97;;;19.75;53.31
74336;BME280;62755;-33.398;-70.572;2023-11-21T04:47:49;93168.50;;;19.39;54.26
74336;BME280;62755;-33.398;-70.572;2023-11-21T04:50:19;93172.69;;;19.49;54.11
74336;BME280;62755;-33.398;-70.572;2023-11-21T04:52:49;93175.03;;;19.56;54.21
74336;BME280;62755;-33.398;-70.572;2023-11-21T04:55:20;93169.47;;;19.36;54.30
74336;BME280;62755;-33.398;-70.572;2023-11-21T04:57:49;93167.97;;;19.25;54.58
74336;BME280;62755;-33.398;-70.572;2023-11-21T05:00:19;93158.88;;;19.38;54.55
74336;BME280;62755;-33.398;-70.572;2023-11-21T05:02:49;93155.25;;;19.32;54.59
74336;BME280;62755;-33.398;-70.572;2023-11-21T05:05:19;93152.28;;;19.20;55.06
74336;BME280;62755;-33.398;-70.572;2023-11-21T05:07:49;93155.31;;;19.22;55.00
74336;BME280;62755;-33.398;-70.572;2023-11-21T05:10:22;93158.22;;;19.43;54.36
74336;BME280;62755;-33.398;-70.572;2023-11-21T05:12:51;93149.47;;;19.39;54.42
74336;BME280;62755;-33.398;-70.572;2023-11-21T05:15:21;93152.44;;;19.50;54.30
74336;BME280;62755;-33.398;-70.572;2023-11-21T05:17:50;93151.56;;;19.20;54.96
74336;BME280;62755;-33.398;-70.572;2023-11-21T05:20:20;93153.44;;;19.28;54.99
74336;BME280;62755;-33.398;-70.572;2023-11-21T05:22:51;93151.38;;;19.23;54.95
74336;BME280;62755;-33.398;-70.572;2023-11-21T05:25:23;93153.72;;;19.40;54.76
74336;BME280;62755;-33.398;-70.572;2023-11-21T05:27:52;93147.50;;;19.39;54.86
74336;BME280;62755;-33.398;-70.572;2023-11-21T05:30:22;93143.00;;;19.36;54.98
74336;BME280;62755;-33.398;-70.572;2023-11-21T05:32:51;93151.13;;;19.12;55.41
74336;BME280;62755;-33.398;-70.572;2023-11-21T05:35:21;93148.28;;;19.30;55.18
74336;BME280;62755;-33.398;-70.572;2023-11-21T05:37:50;93143.47;;;19.35;55.27
74336;BME280;62755;-33.398;-70.572;2023-11-21T05:40:21;93139.81;;;19.14;55.64
74336;BME280;62755;-33.398;-70.572;2023-11-21T05:42:53;93151.00;;;19.16;55.52
74336;BME280;62755;-33.398;-70.572;2023-11-21T05:45:22;93145.47;;;19.25;55.33
74336;BME280;62755;-33.398;-70.572;2023-11-21T05:47:52;93149.06;;;19.07;55.66
74336;BME280;62755;-33.398;-70.572;2023-11-21T05:50:22;93150.34;;;18.97;56.06
74336;BME280;62755;-33.398;-70.572;2023-11-21T05:52:51;93148.84;;;18.96;56.15
74336;BME280;62755;-33.398;-70.572;2023-11-21T05:55:23;93138.84;;;19.02;55.93
74336;BME280;62755;-33.398;-70.572;2023-11-21T05:57:53;93151.03;;;19.07;55.97
74336;BME280;62755;-33.398;-70.572;2023-11-21T06:00:22;93147.50;;;19.15;55.56
74336;BME280;62755;-33.398;-70.572;2023-11-21T06:02:53;93154.72;;;19.18;55.69
74336;BME280;62755;-33.398;-70.572;2023-11-21T06:05:23;93136.47;;;18.95;56.21
74336;BME280;62755;-33.398;-70.572;2023-11-21T06:07:53;93146.53;;;19.04;55.89
74336;BME280;62755;-33.398;-70.572;2023-11-21T06:10:25;93139.41;;;19.30;55.18
74336;BME280;62755;-33.398;-70.572;2023-11-21T06:12:55;93139.94;;;19.58;54.44
74336;BME280;62755;-33.398;-70.572;2023-11-21T06:15:24;93141.75;;;19.61;54.41
74336;BME280;62755;-33.398;-70.572;2023-11-21T06:17:54;93141.88;;;19.43;54.95
74336;BME280;62755;-33.398;-70.572;2023-11-21T06:20:23;93135.13;;;18.91;56.24
74336;BME280;62755;-33.398;-70.572;2023-11-21T06:22:52;93132.88;;;18.89;56.30
74336;BME280;62755;-33.398;-70.572;2023-11-21T06:25:24;93136.13;;;18.79;56.70
74336;BME280;62755;-33.398;-70.572;2023-11-21T06:27:54;93110.50;;;18.71;56.37
74336;BME280;62755;-33.398;-70.572;2023-11-21T06:30:23;93135.88;;;18.91;56.25
74336;BME280;62755;-33.398;-70.572;2023-11-21T06:32:52;93136.16;;;18.93;56.09
74336;BME280;62755;-33.398;-70.572;2023-11-21T06:35:23;93130.22;;;18.80;56.52
74336;BME280;62755;-33.398;-70.572;2023-11-21T06:37:54;93140.94;;;18.51;56.99
74336;BME280;62755;-33.398;-70.572;2023-11-21T06:40:25;93123.13;;;18.83;56.26
74336;BME280;62755;-33.398;-70.572;2023-11-21T06:42:55;93128.94;;;18.90;56.25
74336;BME280;62755;-33.398;-70.572;2023-11-21T06:45:25;93127.72;;;18.91;56.08
74336;BME280;62755;-33.398;-70.572;2023-11-21T06:47:55;93121.25;;;18.65;56.04
74336;BME280;62755;-33.398;-70.572;2023-11-21T06:50:24;93127.56;;;18.29;57.26
74336;BME280;62755;-33.398;-70.572;2023-11-21T06:52:54;93129.19;;;18.45;56.75
74336;BME280;62755;-33.398;-70.572;2023-11-21T06:55:25;93115.91;;;18.38;56.80
74336;BME280;62755;-33.398;-70.572;2023-11-21T06:57:54;93110.28;;;18.09;56.80
74336;BME280;62755;-33.398;-70.572;2023-11-21T07:00:25;93116.53;;;18.33;56.33
74336;BME280;62755;-33.398;-70.572;2023-11-21T07:02:55;93103.88;;;18.30;56.16
74336;BME280;62755;-33.398;-70.572;2023-11-21T07:05:24;93110.56;;;18.20;56.03
74336;BME280;62755;-33.398;-70.572;2023-11-21T07:07:54;93109.09;;;18.10;56.35
74336;BME280;62755;-33.398;-70.572;2023-11-21T07:10:25;93102.75;;;18.13;56.35
74336;BME280;62755;-33.398;-70.572;2023-11-21T07:12:54;93100.03;;;18.13;56.36
74336;BME280;62755;-33.398;-70.572;2023-11-21T07:15:24;93107.34;;;17.89;57.18
74336;BME280;62755;-33.398;-70.572;2023-11-21T07:17:54;93105.69;;;17.91;57.14
74336;BME280;62755;-33.398;-70.572;2023-11-21T07:20:24;93102.25;;;17.82;57.19
74336;BME280;62755;-33.398;-70.572;2023-11-21T07:22:53;93098.06;;;17.63;57.71
74336;BME280;62755;-33.398;-70.572;2023-11-21T07:25:25;93076.97;;;17.58;57.07
74336;BME280;62755;-33.398;-70.572;2023-11-21T07:27:54;93107.09;;;17.60;57.38
74336;BME280;62755;-33.398;-70.572;2023-11-21T07:30:23;93104.78;;;17.94;56.54
74336;BME280;62755;-33.398;-70.572;2023-11-21T07:32:53;93106.28;;;17.95;56.59
74336;BME280;62755;-33.398;-70.572;2023-11-21T07:35:22;93105.56;;;17.77;56.78
74336;BME280;62755;-33.398;-70.572;2023-11-21T07:37:52;93092.28;;;17.88;57.19
74336;BME280;62755;-33.398;-70.572;2023-11-21T07:40:21;93099.09;;;17.74;58.38
74336;BME280;62755;-33.398;-70.572;2023-11-21T07:42:52;93109.50;;;17.58;59.44
74336;BME280;62755;-33.398;-70.572;2023-11-21T07:45:24;93100.03;;;17.62;59.32
74336;BME280;62755;-33.398;-70.572;2023-11-21T07:47:54;93095.94;;;17.67;59.26
74336;BME280;62755;-33.398;-70.572;2023-11-21T07:50:24;93099.81;;;17.84;58.74
74336;BME280;62755;-33.398;-70.572;2023-11-21T07:52:53;93104.06;;;17.76;59.21
74336;BME280;62755;-33.398;-70.572;2023-11-21T07:55:23;93101.94;;;17.80;59.46
74336;BME280;62755;-33.398;-70.572;2023-11-21T07:57:55;93103.38;;;17.99;58.80
74336;BME280;62755;-33.398;-70.572;2023-11-21T08:00:24;93095.19;;;18.17;57.99
74336;BME280;62755;-33.398;-70.572;2023-11-21T08:02:57;93097.81;;;18.02;58.55
74336;BME280;62755;-33.398;-70.572;2023-11-21T08:05:26;93091.44;;;17.64;59.60
74336;BME280;62755;-33.398;-70.572;2023-11-21T08:07:56;93089.31;;;17.68;59.62
74336;BME280;62755;-33.398;-70.572;2023-11-21T08:10:25;93092.16;;;17.82;59.35
74336;BME280;62755;-33.398;-70.572;2023-11-21T08:12:57;93091.72;;;17.75;59.55
74336;BME280;62755;-33.398;-70.572;2023-11-21T08:15:26;93087.78;;;17.76;59.72
74336;BME280;62755;-33.398;-70.572;2023-11-21T08:17:55;93088.22;;;17.83;59.56
74336;BME280;62755;-33.398;-70.572;2023-11-21T08:20:25;93084.50;;;17.63;59.98
74336;BME280;62755;-33.398;-70.572;2023-11-21T08:22:55;93083.41;;;17.69;59.87
74336;BME280;62755;-33.398;-70.572;2023-11-21T08:25:25;93085.69;;;17.71;59.83
74336;BME280;62755;-33.398;-70.572;2023-11-21T08:27:56;93088.13;;;17.60;60.22
74336;BME280;62755;-33.398;-70.572;2023-11-21T08:30:25;93093.84;;;17.71;59.96
74336;BME280;62755;-33.398;-70.572;2023-11-21T08:32:56;93099.25;;;17.71;59.92
74336;BME280;62755;-33.398;-70.572;2023-11-21T08:35:26;93097.78;;;17.61;60.37
74336;BME280;62755;-33.398;-70.572;2023-11-21T08:37:56;93095.06;;;17.33;60.78
74336;BME280;62755;-33.398;-70.572;2023-11-21T08:40:25;93106.19;;;17.44;60.71
74336;BME280;62755;-33.398;-70.572;2023-11-21T08:42:56;93093.56;;;17.50;60.54
74336;BME280;62755;-33.398;-70.572;2023-11-21T08:45:27;93115.06;;;17.72;59.80
74336;BME280;62755;-33.398;-70.572;2023-11-21T08:47:56;93104.31;;;17.96;59.43
74336;BME280;62755;-33.398;-70.572;2023-11-21T08:50:26;93098.25;;;18.01;58.99
74336;BME280;62755;-33.398;-70.572;2023-11-21T08:52:55;93104.78;;;17.94;59.16
74336;BME280;62755;-33.398;-70.572;2023-11-21T08:55:24;93106.38;;;18.10;58.53
74336;BME280;62755;-33.398;-70.572;2023-11-21T08:57:56;93106.97;;;18.14;58.64
74336;BME280;62755;-33.398;-70.572;2023-11-21T09:03:02;93092.94;;;17.65;59.88
74336;BME280;62755;-33.398;-70.572;2023-11-21T09:05:38;93063.72;;;17.41;59.93
74336;BME280;62755;-33.398;-70.572;2023-11-21T09:08:07;93087.81;;;17.67;60.14
74336;BME280;62755;-33.398;-70.572;2023-11-21T09:10:37;93080.88;;;17.75;60.00
74336;BME280;62755;-33.398;-70.572;2023-11-21T09:13:08;93082.34;;;17.76;59.69
74336;BME280;62755;-33.398;-70.572;2023-11-21T09:15:37;93074.53;;;17.78;59.85
74336;BME280;62755;-33.398;-70.572;2023-11-21T09:18:07;93072.56;;;17.69;59.87
74336;BME280;62755;-33.398;-70.572;2023-11-21T09:20:37;93026.09;;;17.16;60.38
74336;BME280;62755;-33.398;-70.572;2023-11-21T09:23:06;93070.31;;;17.68;59.96
74336;BME280;62755;-33.398;-70.572;2023-11-21T09:25:36;93066.44;;;17.50;60.05
74336;BME280;62755;-33.398;-70.572;2023-11-21T09:28:08;93074.25;;;17.39;60.70
74336;BME280;62755;-33.398;-70.572;2023-11-21T09:30:37;93071.84;;;17.41;60.78
74336;BME280;62755;-33.398;-70.572;2023-11-21T09:33:06;93075.50;;;17.29;60.96
74336;BME280;62755;-33.398;-70.572;2023-11-21T09:35:38;93067.66;;;17.49;60.92
74336;BME280;62755;-33.398;-70.572;2023-11-21T09:38:08;93063.44;;;17.30;60.99
74336;BME280;62755;-33.398;-70.572;2023-11-21T09:40:38;93065.56;;;17.35;60.82
74336;BME280;62755;-33.398;-70.572;2023-11-21T09:43:16;93055.47;;;17.09;61.31
74336;BME280;62755;-33.398;-70.572;2023-11-21T09:45:46;93075.31;;;17.24;61.48
74336;BME280;62755;-33.398;-70.572;2023-11-21T09:48:17;93071.13;;;17.14;61.44
74336;BME280;62755;-33.398;-70.572;2023-11-21T09:50:48;93063.44;;;17.30;60.86
74336;BME280;62755;-33.398;-70.572;2023-11-21T09:53:20;93061.03;;;17.32;60.79
74336;BME280;62755;-33.398;-70.572;2023-11-21T09:55:53;93076.38;;;17.53;60.40
74336;BME280;62755;-33.398;-70.572;2023-11-21T09:58:25;93066.09;;;17.76;59.45
74336;BME280;62755;-33.398;-70.572;2023-11-21T10:00:58;93075.69;;;17.86;58.94
74336;BME280;62755;-33.398;-70.572;2023-11-21T10:03:30;93075.16;;;17.73;59.58
74336;BME280;62755;-33.398;-70.572;2023-11-21T10:05:59;93081.19;;;17.59;60.20
74336;BME280;62755;-33.398;-70.572;2023-11-21T10:08:30;93085.13;;;17.48;60.47
74336;BME280;62755;-33.398;-70.572;2023-11-21T10:10:59;93080.56;;;17.73;59.48
74336;BME280;62755;-33.398;-70.572;2023-11-21T10:13:32;93083.78;;;17.35;60.09
74336;BME280;62755;-33.398;-70.572;2023-11-21T10:16:02;93092.34;;;17.24;61.09
74336;BME280;62755;-33.398;-70.572;2023-11-21T10:18:33;93079.41;;;17.19;61.26
74336;BME280;62755;-33.398;-70.572;2023-11-21T10:21:07;93094.47;;;17.20;61.36
74336;BME280;62755;-33.398;-70.572;2023-11-21T10:23:36;93095.66;;;17.46;60.54
74336;BME280;62755;-33.398;-70.572;2023-11-21T10:26:06;93094.16;;;17.09;60.57
74336;BME280;62755;-33.398;-70.572;2023-11-21T10:28:39;93090.22;;;16.83;60.74
74336;BME280;62755;-33.398;-70.572;2023-11-21T10:31:08;93095.81;;;16.80;61.17
74336;BME280;62755;-33.398;-70.572;2023-11-21T10:33:38;93105.91;;;17.15;60.59
74336;BME280;62755;-33.398;-70.572;2023-11-21T10:36:08;93100.66;;;17.12;60.22
74336;BME280;62755;-33.398;-70.572;2023-11-21T10:38:43;93116.13;;;17.47;59.65
74336;BME280;62755;-33.398;-70.572;2023-11-21T10:41:13;93113.72;;;17.22;60.39
74336;BME280;62755;-33.398;-70.572;2023-11-21T10:43:44;93115.25;;;17.50;59.66
74336;BME280;62755;-33.398;-70.572;2023-11-21T10:46:16;93107.41;;;17.71;59.23
74336;BME280;62755;-33.398;-70.572;2023-11-21T10:48:50;93106.31;;;17.77;59.12
74336;BME280;62755;-33.398;-70.572;2023-11-21T10:51:21;93111.63;;;17.63;60.01
74336;BME280;62755;-33.398;-70.572;2023-11-21T10:53:51;93125.47;;;17.65;59.65
74336;BME280;62755;-33.398;-70.572;2023-11-21T10:56:23;93115.16;;;17.96;58.67
74336;BME280;62755;-33.398;-70.572;2023-11-21T10:58:58;93110.38;;;17.82;58.94
74336;BME280;62755;-33.398;-70.572;2023-11-21T11:01:29;93122.72;;;17.83;59.05
74336;BME280;62755;-33.398;-70.572;2023-11-21T11:03:59;93128.16;;;17.74;59.29
74336;BME280;62755;-33.398;-70.572;2023-11-21T11:06:30;93122.38;;;17.99;58.64
74336;BME280;62755;-33.398;-70.572;2023-11-21T11:09:00;93132.69;;;17.86;59.11
74336;BME280;62755;-33.398;-70.572;2023-11-21T11:11:32;93141.13;;;17.79;59.78
74336;BME280;62755;-33.398;-70.572;2023-11-21T11:14:05;93132.97;;;17.88;59.31
74336;BME280;62755;-33.398;-70.572;2023-11-21T11:16:34;93138.66;;;17.99;59.08
74336;BME280;62755;-33.398;-70.572;2023-11-21T11:19:05;93135.94;;;18.08;58.87
74336;BME280;62755;-33.398;-70.572;2023-11-21T11:21:43;93126.84;;;18.20;58.13
74336;BME280;62755;-33.398;-70.572;2023-11-21T11:24:36;93136.84;;;18.05;58.77
74336;BME280;62755;-33.398;-70.572;2023-11-21T11:27:20;93133.56;;;17.92;59.29
74336;BME280;62755;-33.398;-70.572;2023-11-21T11:30:01;93133.22;;;17.99;59.00
74336;BME280;62755;-33.398;-70.572;2023-11-21T11:32:43;93120.16;;;18.30;57.86
74336;BME280;62755;-33.398;-70.572;2023-11-21T11:35:22;93116.94;;;17.99;58.48
74336;BME280;62755;-33.398;-70.572;2023-11-21T11:37:54;93129.63;;;18.02;58.70
74336;BME280;62755;-33.398;-70.572;2023-11-21T11:40:24;93121.75;;;18.13;58.19
74336;BME280;62755;-33.398;-70.572;2023-11-21T11:42:58;93120.50;;;18.23;57.52
74336;BME280;62755;-33.398;-70.572;2023-11-21T11:45:35;93122.00;;;18.24;57.90
74336;BME280;62755;-33.398;-70.572;2023-11-21T11:48:08;93125.09;;;18.08;58.04
74336;BME280;62755;-33.398;-70.572;2023-11-21T11:51:01;93127.81;;;17.99;58.15
74336;BME280;62755;-33.398;-70.572;2023-11-21T11:53:36;93115.53;;;18.21;57.50
74336;BME280;62755;-33.398;-70.572;2023-11-21T11:56:30;93103.91;;;18.21;57.49
74336;BME280;62755;-33.398;-70.572;2023-11-21T11:59:02;93098.19;;;18.19;57.90
74336;BME280;62755;-33.398;-70.572;2023-11-21T12:01:34;93100.66;;;18.40;56.84
74336;BME280;62755;-33.398;-70.572;2023-11-21T12:04:24;93108.66;;;18.44;56.34
74336;BME280;62755;-33.398;-70.572;2023-11-21T12:07:00;93110.81;;;18.31;56.06
74336;BME280;62755;-33.398;-70.572;2023-11-21T12:09:32;93116.25;;;18.31;57.02
74336;BME280;62755;-33.398;-70.572;2023-11-21T12:12:03;93123.47;;;18.43;56.40
74336;BME280;62755;-33.398;-70.572;2023-11-21T12:14:32;93131.66;;;18.67;55.86
74336;BME280;62755;-33.398;-70.572;2023-11-21T12:17:04;93129.66;;;18.67;55.73
74336;BME280;62755;-33.398;-70.572;2023-11-21T12:19:34;93120.44;;;18.74;55.33
74336;BME280;62755;-33.398;-70.572;2023-11-21T12:22:04;93129.25;;;18.92;54.48
74336;BME280;62755;-33.398;-70.572;2023-11-21T12:24:35;93137.81;;;19.00;54.54
74336;BME280;62755;-33.398;-70.572;2023-11-21T12:27:04;93136.47;;;18.95;54.57
74336;BME280;62755;-33.398;-70.572;2023-11-21T12:29:35;93142.84;;;18.92;55.03
74336;BME280;62755;-33.398;-70.572;2023-11-21T12:32:07;93145.09;;;18.94;54.91
74336;BME280;62755;-33.398;-70.572;2023-11-21T12:34:37;93141.31;;;18.91;55.02
74336;BME280;62755;-33.398;-70.572;2023-11-21T12:37:07;93143.44;;;19.11;55.00
74336;BME280;62755;-33.398;-70.572;2023-11-21T12:39:37;93155.84;;;19.12;55.24
74336;BME280;62755;-33.398;-70.572;2023-11-21T12:42:07;93145.47;;;19.25;54.88
74336;BME280;62755;-33.398;-70.572;2023-11-21T12:44:36;93149.06;;;19.07;54.90
74336;BME280;62755;-33.398;-70.572;2023-11-21T12:47:09;93157.72;;;19.20;54.75
74336;BME280;62755;-33.398;-70.572;2023-11-21T12:49:41;93154.63;;;19.37;55.36
74336;BME280;62755;-33.398;-70.572;2023-11-21T12:52:12;93162.16;;;19.42;54.42